sensor_id;sensor_type;location;lat;lon;timestamp;P1;durP1;ratioP1;P2;durP2;ratioP2
35909;SDS011;22004;49.120;-0.200;2023-07-08T00:00:49;13.43;;;7.13;;
35909;SDS011;22004;49.120;-0.200;2023-07-08T00:03:14;20.90;;;6.93;;
35909;SDS011;22004;49.120;-0.200;2023-07-08T00:05:40;12.82;;;6.55;;
35909;SDS011;22004;49.120;-0.200;2023-07-08T00:08:08;15.10;;;6.53;;
35909;SDS011;22004;49.120;-0.200;2023-07-08T00:10:37;12.35;;;6.00;;
35909;SDS011;22004;49.120;-0.200;2023-07-08T00:13:02;13.85;;;7.07;;
35909;SDS011;22004;49.120;-0.200;2023-07-08T00:15:29;13.35;;;7.20;;
35909;SDS011;22004;49.120;-0.200;2023-07-08T00:17:59;14.98;;;7.00;;
35909;SDS011;22004;49.120;-0.200;2023-07-08T00:23:03;16.10;;;7.38;;
35909;SDS011;22004;49.120;-0.200;2023-07-08T00:25:29;21.30;;;6.68;;
35909;SDS011;22004;49.120;-0.200;2023-07-08T00:27:56;15.13;;;6.88;;
35909;SDS011;22004;49.120;-0.200;2023-07-08T00:30:23;13.82;;;6.85;;
35909;SDS011;22004;49.120;-0.200;2023-07-08T00:32:50;15.77;;;6.88;;
35909;SDS011;22004;49.120;-0.200;2023-07-08T00:35:28;11.05;;;7.03;;
35909;SDS011;22004;49.120;-0.200;2023-07-08T00:37:56;12.23;;;6.72;;
35909;SDS011;22004;49.120;-0.200;2023-07-08T00:40:31;14.02;;;6.43;;
35909;SDS011;22004;49.120;-0.200;2023-07-08T00:43:01;15.57;;;7.22;;
35909;SDS011;22004;49.120;-0.200;2023-07-08T00:45:41;10.75;;;6.82;;
35909;SDS011;22004;49.120;-0.200;2023-07-08T00:48:19;14.50;;;6.72;;
35909;SDS011;22004;49.120;-0.200;2023-07-08T00:50:49;13.32;;;7.00;;
35909;SDS011;22004;49.120;-0.200;2023-07-08T00:53:22;18.17;;;6.47;;
35909;SDS011;22004;49.120;-0.200;2023-07-08T00:55:53;15.70;;;6.95;;
35909;SDS011;22004;49.120;-0.200;2023-07-08T00:58:24;18.10;;;6.63;;
35909;SDS011;22004;49.120;-0.200;2023-07-08T01:00:51;18.52;;;6.97;;
35909;SDS011;22004;49.120;-0.200;2023-07-08T01:03:18;14.73;;;6.10;;
35909;SDS011;22004;49.120;-0.200;2023-07-08T01:05:45;16.50;;;6.63;;
35909;SDS011;22004;49.120;-0.200;2023-07-08T01:08:11;9.68;;;5.80;;
35909;SDS011;22004;49.120;-0.200;2023-07-08T01:10:39;12.73;;;5.80;;
35909;SDS011;22004;49.120;-0.200;2023-07-08T01:13:09;14.90;;;5.97;;
35909;SDS011;22004;49.120;-0.200;2023-07-08T01:15:39;12.20;;;5.75;;
35909;SDS011;22004;49.120;-0.200;2023-07-08T01:18:07;14.23;;;5.82;;
35909;SDS011;22004;49.120;-0.200;2023-07-08T01:20:34;14.95;;;5.68;;
35909;SDS011;22004;49.120;-0.200;2023-07-08T01:23:00;13.52;;;5.20;;
35909;SDS011;22004;49.120;-0.200;2023-07-08T01:25:26;11.45;;;5.28;;
35909;SDS011;22004;49.120;-0.200;2023-07-08T01:27:53;12.10;;;5.45;;
35909;SDS011;22004;49.120;-0.200;2023-07-08T01:30:21;12.48;;;5.07;;
35909;SDS011;22004;49.120;-0.200;2023-07-08T01:32:50;11.43;;;5.10;;
35909;SDS011;22004;49.120;-0.200;2023-07-08T01:35:19;11.98;;;5.00;;
35909;SDS011;22004;49.120;-0.200;2023-07-08T01:37:49;8.27;;;5.15;;
35909;SDS011;22004;49.120;-0.200;2023-07-08T01:42:44;12.97;;;4.60;;
35909;SDS011;22004;49.120;-0.200;2023-07-08T01:45:11;11.93;;;4.85;;
35909;SDS011;22004;49.120;-0.200;2023-07-08T01:47:38;10.57;;;4.47;;
35909;SDS011;22004;49.120;-0.200;2023-07-08T01:50:06;12.82;;;4.70;;
35909;SDS011;22004;49.120;-0.200;2023-07-08T01:52:32;8.63;;;4.55;;
35909;SDS011;22004;49.120;-0.200;2023-07-08T01:54:58;11.00;;;4.25;;
35909;SDS011;22004;49.120;-0.200;2023-07-08T01:57:23;8.50;;;4.38;;
35909;SDS011;22004;49.120;-0.200;2023-07-08T01:59:48;10.20;;;4.10;;
35909;SDS011;22004;49.120;-0.200;2023-07-08T02:02:14;12.40;;;4.68;;
35909;SDS011;22004;49.120;-0.200;2023-07-08T02:04:39;12.43;;;4.78;;
35909;SDS011;22004;49.120;-0.200;2023-07-08T02:07:04;10.40;;;4.15;;
35909;SDS011;22004;49.120;-0.200;2023-07-08T02:09:30;7.95;;;4.30;;
35909;SDS011;22004;49.120;-0.200;2023-07-08T02:11:55;10.20;;;4.13;;
35909;SDS011;22004;49.120;-0.200;2023-07-08T02:14:21;11.52;;;4.75;;
35909;SDS011;22004;49.120;-0.200;2023-07-08T02:16:46;13.05;;;4.43;;
35909;SDS011;22004;49.120;-0.200;2023-07-08T02:19:12;12.00;;;3.90;;
35909;SDS011;22004;49.120;-0.200;2023-07-08T02:21:38;11.93;;;3.85;;
35909;SDS011;22004;49.120;-0.200;2023-07-08T02:24:04;9.43;;;3.75;;
35909;SDS011;22004;49.120;-0.200;2023-07-08T02:26:30;9.15;;;3.80;;
35909;SDS011;22004;49.120;-0.200;2023-07-08T02:28:59;8.35;;;3.45;;
35909;SDS011;22004;49.120;-0.200;2023-07-08T02:31:24;8.77;;;3.45;;
35909;SDS011;22004;49.120;-0.200;2023-07-08T02:33:50;10.77;;;3.53;;
35909;SDS011;22004;49.120;-0.200;2023-07-08T02:36:16;9.05;;;3.72;;
35909;SDS011;22004;49.120;-0.200;2023-07-08T02:38:42;12.35;;;4.20;;
35909;SDS011;22004;49.120;-0.200;2023-07-08T02:41:07;10.90;;;3.30;;
35909;SDS011;22004;49.120;-0.200;2023-07-08T02:43:32;7.15;;;3.35;;
35909;SDS011;22004;49.120;-0.200;2023-07-08T02:45:58;6.88;;;3.60;;
35909;SDS011;22004;49.120;-0.200;2023-07-08T02:48:23;11.88;;;3.60;;
35909;SDS011;22004;49.120;-0.200;2023-07-08T02:50:48;8.65;;;3.45;;
35909;SDS011;22004;49.120;-0.200;2023-07-08T02:53:14;14.63;;;2.92;;
35909;SDS011;22004;49.120;-0.200;2023-07-08T02:55:39;6.25;;;2.75;;
35909;SDS011;22004;49.120;-0.200;2023-07-08T02:58:07;10.63;;;3.45;;
35909;SDS011;22004;49.120;-0.200;2023-07-08T03:00:34;7.60;;;3.50;;
35909;SDS011;22004;49.120;-0.200;2023-07-08T03:03:02;7.78;;;3.00;;
35909;SDS011;22004;49.120;-0.200;2023-07-08T03:05:29;9.25;;;3.33;;
35909;SDS011;22004;49.120;-0.200;2023-07-08T03:07:55;6.80;;;3.72;;
35909;SDS011;22004;49.120;-0.200;2023-07-08T03:10:21;6.32;;;3.35;;
35909;SDS011;22004;49.120;-0.200;2023-07-08T03:12:46;6.25;;;3.10;;
35909;SDS011;22004;49.120;-0.200;2023-07-08T03:15:11;8.07;;;3.42;;
35909;SDS011;22004;49.120;-0.200;2023-07-08T03:17:37;7.40;;;4.32;;
35909;SDS011;22004;49.120;-0.200;2023-07-08T03:20:02;8.05;;;4.47;;
35909;SDS011;22004;49.120;-0.200;2023-07-08T03:22:30;8.13;;;4.28;;
35909;SDS011;22004;49.120;-0.200;2023-07-08T03:24:56;8.80;;;4.45;;
35909;SDS011;22004;49.120;-0.200;2023-07-08T03:27:21;6.20;;;4.22;;
35909;SDS011;22004;49.120;-0.200;2023-07-08T03:29:46;8.00;;;3.95;;
35909;SDS011;22004;49.120;-0.200;2023-07-08T03:32:12;8.48;;;4.35;;
35909;SDS011;22004;49.120;-0.200;2023-07-08T03:34:38;8.07;;;3.35;;
35909;SDS011;22004;49.120;-0.200;2023-07-08T03:37:03;6.55;;;3.30;;
35909;SDS011;22004;49.120;-0.200;2023-07-08T03:39:29;6.50;;;3.55;;
35909;SDS011;22004;49.120;-0.200;2023-07-08T03:41:56;7.72;;;3.80;;
35909;SDS011;22004;49.120;-0.200;2023-07-08T03:44:22;9.38;;;4.10;;
35909;SDS011;22004;49.120;-0.200;2023-07-08T03:46:48;8.60;;;3.67;;
35909;SDS011;22004;49.120;-0.200;2023-07-08T03:49:14;7.18;;;3.20;;
35909;SDS011;22004;49.120;-0.200;2023-07-08T03:51:40;7.03;;;3.10;;
35909;SDS011;22004;49.120;-0.200;2023-07-08T03:54:08;10.07;;;3.17;;
35909;SDS011;22004;49.120;-0.200;2023-07-08T03:56:37;9.95;;;4.30;;
35909;SDS011;22004;49.120;-0.200;2023-07-08T03:59:02;8.32;;;3.88;;
35909;SDS011;22004;49.120;-0.200;2023-07-08T04:01:28;7.43;;;3.10;;
35909;SDS011;22004;49.120;-0.200;2023-07-08T04:03:54;7.28;;;3.90;;
35909;SDS011;22004;49.120;-0.200;2023-07-08T04:06:21;8.25;;;3.88;;
35909;SDS011;22004;49.120;-0.200;2023-07-08T04:08:47;8.60;;;3.50;;
35909;SDS011;22004;49.120;-0.200;2023-07-08T04:11:14;7.95;;;3.70;;
35909;SDS011;22004;49.120;-0.200;2023-07-08T04:13:42;9.20;;;3.50;;
35909;SDS011;22004;49.120;-0.200;2023-07-08T04:16:07;6.43;;;3.90;;
35909;SDS011;22004;49.120;-0.200;2023-07-08T04:18:41;8.55;;;3.60;;
35909;SDS011;22004;49.120;-0.200;2023-07-08T04:21:06;9.80;;;3.63;;
35909;SDS011;22004;49.120;-0.200;2023-07-08T04:23:32;5.80;;;3.75;;
35909;SDS011;22004;49.120;-0.200;2023-07-08T04:25:57;9.18;;;3.55;;
35909;SDS011;22004;49.120;-0.200;2023-07-08T04:28:23;6.15;;;4.00;;
35909;SDS011;22004;49.120;-0.200;2023-07-08T04:30:49;7.88;;;3.40;;
35909;SDS011;22004;49.120;-0.200;2023-07-08T04:33:14;11.38;;;4.00;;
35909;SDS011;22004;49.120;-0.200;2023-07-08T04:35:41;7.45;;;4.00;;
35909;SDS011;22004;49.120;-0.200;2023-07-08T04:38:18;7.45;;;3.95;;
35909;SDS011;22004;49.120;-0.200;2023-07-08T04:40:46;6.97;;;4.00;;
35909;SDS011;22004;49.120;-0.200;2023-07-08T04:43:12;5.70;;;3.60;;
35909;SDS011;22004;49.120;-0.200;2023-07-08T04:45:38;5.30;;;3.45;;
35909;SDS011;22004;49.120;-0.200;2023-07-08T04:48:05;5.38;;;3.50;;
35909;SDS011;22004;49.120;-0.200;2023-07-08T04:50:33;8.80;;;3.33;;
35909;SDS011;22004;49.120;-0.200;2023-07-08T04:52:59;6.07;;;3.63;;
35909;SDS011;22004;49.120;-0.200;2023-07-08T04:55:25;5.53;;;3.13;;
35909;SDS011;22004;49.120;-0.200;2023-07-08T04:57:50;5.95;;;3.58;;
35909;SDS011;22004;49.120;-0.200;2023-07-08T05:00:16;6.10;;;3.80;;
35909;SDS011;22004;49.120;-0.200;2023-07-08T05:02:42;5.38;;;3.50;;
35909;SDS011;22004;49.120;-0.200;2023-07-08T05:05:08;5.53;;;3.55;;
35909;SDS011;22004;49.120;-0.200;2023-07-08T05:07:33;6.18;;;3.60;;
35909;SDS011;22004;49.120;-0.200;2023-07-08T05:09:58;7.65;;;4.18;;
35909;SDS011;22004;49.120;-0.200;2023-07-08T05:12:25;7.40;;;3.45;;
35909;SDS011;22004;49.120;-0.200;2023-07-08T05:14:51;5.50;;;3.40;;
35909;SDS011;22004;49.120;-0.200;2023-07-08T05:17:16;6.55;;;3.50;;
35909;SDS011;22004;49.120;-0.200;2023-07-08T05:19:41;9.07;;;3.55;;
35909;SDS011;22004;49.120;-0.200;2023-07-08T05:22:09;6.70;;;3.65;;
35909;SDS011;22004;49.120;-0.200;2023-07-08T05:24:34;8.60;;;4.10;;
35909;SDS011;22004;49.120;-0.200;2023-07-08T05:27:00;5.97;;;3.10;;
35909;SDS011;22004;49.120;-0.200;2023-07-08T05:29:25;5.75;;;3.88;;
35909;SDS011;22004;49.120;-0.200;2023-07-08T05:31:50;8.32;;;3.15;;
35909;SDS011;22004;49.120;-0.200;2023-07-08T05:34:16;6.90;;;3.88;;
35909;SDS011;22004;49.120;-0.200;2023-07-08T05:36:41;4.63;;;2.90;;
35909;SDS011;22004;49.120;-0.200;2023-07-08T05:39:07;8.82;;;3.90;;
35909;SDS011;22004;49.120;-0.200;2023-07-08T05:41:32;8.35;;;3.85;;
35909;SDS011;22004;49.120;-0.200;2023-07-08T05:43:58;8.60;;;3.40;;
35909;SDS011;22004;49.120;-0.200;2023-07-08T05:46:23;10.18;;;3.58;;
35909;SDS011;22004;49.120;-0.200;2023-07-08T05:48:48;9.73;;;3.72;;
35909;SDS011;22004;49.120;-0.200;2023-07-08T05:51:15;5.53;;;3.25;;
35909;SDS011;22004;49.120;-0.200;2023-07-08T05:53:41;13.10;;;4.38;;
35909;SDS011;22004;49.120;-0.200;2023-07-08T05:56:06;8.88;;;3.35;;
35909;SDS011;22004;49.120;-0.200;2023-07-08T05:58:32;7.75;;;3.35;;
35909;SDS011;22004;49.120;-0.200;2023-07-08T06:00:57;7.90;;;3.85;;
35909;SDS011;22004;49.120;-0.200;2023-07-08T06:03:23;8.63;;;3.13;;
35909;SDS011;22004;49.120;-0.200;2023-07-08T06:05:48;5.72;;;3.00;;
35909;SDS011;22004;49.120;-0.200;2023-07-08T06:08:14;8.13;;;3.22;;
35909;SDS011;22004;49.120;-0.200;2023-07-08T06:10:43;5.72;;;3.13;;
35909;SDS011;22004;49.120;-0.200;2023-07-08T06:13:09;6.28;;;3.50;;
35909;SDS011;22004;49.120;-0.200;2023-07-08T06:15:36;7.32;;;2.75;;
35909;SDS011;22004;49.120;-0.200;2023-07-08T06:18:01;5.88;;;2.95;;
35909;SDS011;22004;49.120;-0.200;2023-07-08T06:20:27;8.60;;;4.15;;
35909;SDS011;22004;49.120;-0.200;2023-07-08T06:22:53;5.50;;;3.03;;
35909;SDS011;22004;49.120;-0.200;2023-07-08T06:25:19;6.40;;;3.60;;
35909;SDS011;22004;49.120;-0.200;2023-07-08T06:27:45;9.60;;;3.15;;
35909;SDS011;22004;49.120;-0.200;2023-07-08T06:30:10;9.13;;;3.00;;
35909;SDS011;22004;49.120;-0.200;2023-07-08T06:32:36;4.80;;;2.78;;
35909;SDS011;22004;49.120;-0.200;2023-07-08T06:35:01;6.15;;;2.88;;
35909;SDS011;22004;49.120;-0.200;2023-07-08T06:37:27;8.07;;;2.80;;
35909;SDS011;22004;49.120;-0.200;2023-07-08T06:39:52;5.32;;;2.60;;
35909;SDS011;22004;49.120;-0.200;2023-07-08T06:42:17;5.95;;;2.65;;
35909;SDS011;22004;49.120;-0.200;2023-07-08T06:44:43;6.88;;;2.40;;
35909;SDS011;22004;49.120;-0.200;2023-07-08T06:47:15;4.95;;;2.35;;
35909;SDS011;22004;49.120;-0.200;2023-07-08T06:49:45;5.82;;;2.35;;
35909;SDS011;22004;49.120;-0.200;2023-07-08T06:52:11;5.43;;;2.97;;
35909;SDS011;22004;49.120;-0.200;2023-07-08T06:54:36;4.45;;;2.22;;
35909;SDS011;22004;49.120;-0.200;2023-07-08T06:57:02;6.90;;;3.10;;
35909;SDS011;22004;49.120;-0.200;2023-07-08T06:59:27;4.90;;;3.00;;
35909;SDS011;22004;49.120;-0.200;2023-07-08T07:01:53;5.60;;;2.83;;
35909;SDS011;22004;49.120;-0.200;2023-07-08T07:04:19;5.90;;;2.83;;
35909;SDS011;22004;49.120;-0.200;2023-07-08T07:06:44;10.98;;;3.30;;
35909;SDS011;22004;49.120;-0.200;2023-07-08T07:09:09;10.25;;;3.30;;
35909;SDS011;22004;49.120;-0.200;2023-07-08T07:11:35;7.32;;;3.47;;
35909;SDS011;22004;49.120;-0.200;2023-07-08T07:14:00;10.32;;;3.33;;
35909;SDS011;22004;49.120;-0.200;2023-07-08T07:16:25;6.25;;;3.22;;
35909;SDS011;22004;49.120;-0.200;2023-07-08T07:18:51;8.93;;;3.75;;
35909;SDS011;22004;49.120;-0.200;2023-07-08T07:21:17;8.55;;;3.40;;
35909;SDS011;22004;49.120;-0.200;2023-07-08T07:23:42;7.00;;;3.47;;
35909;SDS011;22004;49.120;-0.200;2023-07-08T07:26:08;11.10;;;4.20;;
35909;SDS011;22004;49.120;-0.200;2023-07-08T07:28:33;6.70;;;4.03;;
35909;SDS011;22004;49.120;-0.200;2023-07-08T07:30:59;11.95;;;3.17;;
35909;SDS011;22004;49.120;-0.200;2023-07-08T07:33:25;7.68;;;3.65;;
35909;SDS011;22004;49.120;-0.200;2023-07-08T07:35:51;4.78;;;3.20;;
35909;SDS011;22004;49.120;-0.200;2023-07-08T07:38:16;9.32;;;4.32;;
35909;SDS011;22004;49.120;-0.200;2023-07-08T07:40:42;7.38;;;4.00;;
35909;SDS011;22004;49.120;-0.200;2023-07-08T07:43:07;10.77;;;4.25;;
35909;SDS011;22004;49.120;-0.200;2023-07-08T07:45:33;7.78;;;3.70;;
35909;SDS011;22004;49.120;-0.200;2023-07-08T07:47:58;9.05;;;4.10;;
35909;SDS011;22004;49.120;-0.200;2023-07-08T07:50:24;14.15;;;3.50;;
35909;SDS011;22004;49.120;-0.200;2023-07-08T07:52:49;9.98;;;4.18;;
35909;SDS011;22004;49.120;-0.200;2023-07-08T07:55:14;6.45;;;3.60;;
35909;SDS011;22004;49.120;-0.200;2023-07-08T07:57:40;6.47;;;4.13;;
35909;SDS011;22004;49.120;-0.200;2023-07-08T08:00:07;7.95;;;4.05;;
35909;SDS011;22004;49.120;-0.200;2023-07-08T08:02:34;7.10;;;3.63;;
35909;SDS011;22004;49.120;-0.200;2023-07-08T08:04:59;7.40;;;3.70;;
35909;SDS011;22004;49.120;-0.200;2023-07-08T08:07:25;7.25;;;4.03;;
35909;SDS011;22004;49.120;-0.200;2023-07-08T08:09:50;12.75;;;4.20;;
35909;SDS011;22004;49.120;-0.200;2023-07-08T08:12:15;7.07;;;4.07;;
35909;SDS011;22004;49.120;-0.200;2023-07-08T08:14:41;6.07;;;3.72;;
35909;SDS011;22004;49.120;-0.200;2023-07-08T08:17:06;9.13;;;4.30;;
35909;SDS011;22004;49.120;-0.200;2023-07-08T08:19:32;9.45;;;4.13;;
35909;SDS011;22004;49.120;-0.200;2023-07-08T08:21:57;7.28;;;3.65;;
35909;SDS011;22004;49.120;-0.200;2023-07-08T08:24:23;9.63;;;3.92;;
35909;SDS011;22004;49.120;-0.200;2023-07-08T08:26:48;5.57;;;3.80;;
35909;SDS011;22004;49.120;-0.200;2023-07-08T08:29:13;6.40;;;3.47;;
35909;SDS011;22004;49.120;-0.200;2023-07-08T08:31:39;6.38;;;3.53;;
35909;SDS011;22004;49.120;-0.200;2023-07-08T08:34:04;10.70;;;3.67;;
35909;SDS011;22004;49.120;-0.200;2023-07-08T08:36:29;8.05;;;3.80;;
35909;SDS011;22004;49.120;-0.200;2023-07-08T08:38:55;10.07;;;3.90;;
35909;SDS011;22004;49.120;-0.200;2023-07-08T08:41:22;7.18;;;3.83;;
35909;SDS011;22004;49.120;-0.200;2023-07-08T08:43:55;10.45;;;4.05;;
35909;SDS011;22004;49.120;-0.200;2023-07-08T08:49:26;10.38;;;4.25;;
35909;SDS011;22004;49.120;-0.200;2023-07-08T08:51:56;6.93;;;4.10;;
35909;SDS011;22004;49.120;-0.200;2023-07-08T08:54:24;8.05;;;4.25;;
35909;SDS011;22004;49.120;-0.200;2023-07-08T09:11:01;6.03;;;3.90;;
35909;SDS011;22004;49.120;-0.200;2023-07-08T09:13:49;7.22;;;3.72;;
35909;SDS011;22004;49.120;-0.200;2023-07-08T09:16:20;11.15;;;4.32;;
35909;SDS011;22004;49.120;-0.200;2023-07-08T09:21:37;8.25;;;4.07;;
35909;SDS011;22004;49.120;-0.200;2023-07-08T09:24:09;6.65;;;4.13;;
35909;SDS011;22004;49.120;-0.200;2023-07-08T09:26:41;8.52;;;4.55;;
35909;SDS011;22004;49.120;-0.200;2023-07-08T09:29:10;7.00;;;3.78;;
35909;SDS011;22004;49.120;-0.200;2023-07-08T09:31:37;7.10;;;3.85;;
35909;SDS011;22004;49.120;-0.200;2023-07-08T09:34:06;8.18;;;4.00;;
35909;SDS011;22004;49.120;-0.200;2023-07-08T09:36:37;10.45;;;4.45;;
35909;SDS011;22004;49.120;-0.200;2023-07-08T09:39:05;11.20;;;4.90;;
35909;SDS011;22004;49.120;-0.200;2023-07-08T09:41:36;10.70;;;4.32;;
35909;SDS011;22004;49.120;-0.200;2023-07-08T09:46:35;10.75;;;4.50;;
35909;SDS011;22004;49.120;-0.200;2023-07-08T09:49:35;7.65;;;4.88;;
35909;SDS011;22004;49.120;-0.200;2023-07-08T09:51:59;7.90;;;4.50;;
35909;SDS011;22004;49.120;-0.200;2023-07-08T09:54:25;7.72;;;4.50;;
35909;SDS011;22004;49.120;-0.200;2023-07-08T09:56:58;9.05;;;5.03;;
35909;SDS011;22004;49.120;-0.200;2023-07-08T09:59:31;11.98;;;5.18;;
35909;SDS011;22004;49.120;-0.200;2023-07-08T10:02:00;10.77;;;5.47;;
35909;SDS011;22004;49.120;-0.200;2023-07-08T10:04:29;13.98;;;5.97;;
35909;SDS011;22004;49.120;-0.200;2023-07-08T10:06:54;12.65;;;5.88;;
35909;SDS011;22004;49.120;-0.200;2023-07-08T10:09:21;11.40;;;5.35;;
35909;SDS011;22004;49.120;-0.200;2023-07-08T10:11:50;8.13;;;5.43;;
35909;SDS011;22004;49.120;-0.200;2023-07-08T10:14:25;10.43;;;5.27;;
35909;SDS011;22004;49.120;-0.200;2023-07-08T10:16:56;12.80;;;5.97;;
35909;SDS011;22004;49.120;-0.200;2023-07-08T10:19:22;15.57;;;4.72;;
35909;SDS011;22004;49.120;-0.200;2023-07-08T10:30:27;12.25;;;5.93;;
35909;SDS011;22004;49.120;-0.200;2023-07-08T10:35:34;15.20;;;5.68;;
35909;SDS011;22004;49.120;-0.200;2023-07-08T10:38:17;11.23;;;5.47;;
35909;SDS011;22004;49.120;-0.200;2023-07-08T10:51:53;13.70;;;5.90;;
35909;SDS011;22004;49.120;-0.200;2023-07-08T10:56:54;11.60;;;5.93;;
35909;SDS011;22004;49.120;-0.200;2023-07-08T10:59:39;14.20;;;5.80;;
35909;SDS011;22004;49.120;-0.200;2023-07-08T11:02:38;13.47;;;6.50;;
35909;SDS011;22004;49.120;-0.200;2023-07-08T11:05:29;11.30;;;5.20;;
35909;SDS011;22004;49.120;-0.200;2023-07-08T11:08:16;14.07;;;6.07;;
35909;SDS011;22004;49.120;-0.200;2023-07-08T11:10:51;11.60;;;6.20;;
35909;SDS011;22004;49.120;-0.200;2023-07-08T11:13:21;11.00;;;6.72;;
35909;SDS011;22004;49.120;-0.200;2023-07-08T11:18:43;16.38;;;6.05;;
35909;SDS011;22004;49.120;-0.200;2023-07-08T11:21:13;15.90;;;6.18;;
35909;SDS011;22004;49.120;-0.200;2023-07-08T11:24:06;15.15;;;6.32;;
35909;SDS011;22004;49.120;-0.200;2023-07-08T11:26:53;13.65;;;6.40;;
35909;SDS011;22004;49.120;-0.200;2023-07-08T11:31:49;15.43;;;6.68;;
35909;SDS011;22004;49.120;-0.200;2023-07-08T11:34:16;10.35;;;5.57;;
35909;SDS011;22004;49.120;-0.200;2023-07-08T11:36:43;16.67;;;5.70;;
35909;SDS011;22004;49.120;-0.200;2023-07-08T11:42:04;9.90;;;5.63;;
35909;SDS011;22004;49.120;-0.200;2023-07-08T11:44:51;12.40;;;6.47;;
35909;SDS011;22004;49.120;-0.200;2023-07-08T11:47:41;10.43;;;6.63;;
35909;SDS011;22004;49.120;-0.200;2023-07-08T11:50:17;16.80;;;5.90;;
35909;SDS011;22004;49.120;-0.200;2023-07-08T11:52:58;12.75;;;6.90;;
35909;SDS011;22004;49.120;-0.200;2023-07-08T12:00:51;16.70;;;6.38;;
35909;SDS011;22004;49.120;-0.200;2023-07-08T12:03:22;21.17;;;7.00;;
35909;SDS011;22004;49.120;-0.200;2023-07-08T12:05:58;27.58;;;9.52;;
35909;SDS011;22004;49.120;-0.200;2023-07-08T12:08:32;26.67;;;9.55;;
35909;SDS011;22004;49.120;-0.200;2023-07-08T12:11:02;23.08;;;8.57;;
35909;SDS011;22004;49.120;-0.200;2023-07-08T12:13:28;13.75;;;8.10;;
35909;SDS011;22004;49.120;-0.200;2023-07-08T12:15:53;17.40;;;8.75;;
35909;SDS011;22004;49.120;-0.200;2023-07-08T12:18:23;15.45;;;9.18;;
35909;SDS011;22004;49.120;-0.200;2023-07-08T12:20:56;21.00;;;9.20;;
35909;SDS011;22004;49.120;-0.200;2023-07-08T12:23:24;25.83;;;10.70;;
35909;SDS011;22004;49.120;-0.200;2023-07-08T12:25:51;17.02;;;9.43;;
35909;SDS011;22004;49.120;-0.200;2023-07-08T12:28:19;22.25;;;9.23;;
35909;SDS011;22004;49.120;-0.200;2023-07-08T12:30:46;15.95;;;7.85;;
35909;SDS011;22004;49.120;-0.200;2023-07-08T12:33:24;13.43;;;7.68;;
35909;SDS011;22004;49.120;-0.200;2023-07-08T12:35:55;20.60;;;10.60;;
35909;SDS011;22004;49.120;-0.200;2023-07-08T12:41:10;25.75;;;12.25;;
35909;SDS011;22004;49.120;-0.200;2023-07-08T12:43:37;18.50;;;10.00;;
35909;SDS011;22004;49.120;-0.200;2023-07-08T12:46:03;14.27;;;9.00;;
35909;SDS011;22004;49.120;-0.200;2023-07-08T12:48:35;18.77;;;9.75;;
35909;SDS011;22004;49.120;-0.200;2023-07-08T12:51:02;14.98;;;9.82;;
35909;SDS011;22004;49.120;-0.200;2023-07-08T12:53:28;20.52;;;10.23;;
35909;SDS011;22004;49.120;-0.200;2023-07-08T12:55:54;17.15;;;9.32;;
35909;SDS011;22004;49.120;-0.200;2023-07-08T12:58:23;17.13;;;9.00;;
35909;SDS011;22004;49.120;-0.200;2023-07-08T13:00:51;16.70;;;8.48;;
35909;SDS011;22004;49.120;-0.200;2023-07-08T13:03:17;15.27;;;7.88;;
35909;SDS011;22004;49.120;-0.200;2023-07-08T13:05:47;13.60;;;7.35;;
35909;SDS011;22004;49.120;-0.200;2023-07-08T13:08:14;19.00;;;8.65;;
35909;SDS011;22004;49.120;-0.200;2023-07-08T13:10:43;13.27;;;7.25;;
35909;SDS011;22004;49.120;-0.200;2023-07-08T13:13:18;13.80;;;8.05;;
35909;SDS011;22004;49.120;-0.200;2023-07-08T13:15:46;12.43;;;7.53;;
35909;SDS011;22004;49.120;-0.200;2023-07-08T13:20:40;13.50;;;6.47;;
35909;SDS011;22004;49.120;-0.200;2023-07-08T13:23:07;12.98;;;5.95;;
35909;SDS011;22004;49.120;-0.200;2023-07-08T13:25:33;10.73;;;6.13;;
35909;SDS011;22004;49.120;-0.200;2023-07-08T13:28:14;12.27;;;6.05;;
35909;SDS011;22004;49.120;-0.200;2023-07-08T13:30:49;11.50;;;6.90;;
35909;SDS011;22004;49.120;-0.200;2023-07-08T13:33:28;10.32;;;6.10;;
35909;SDS011;22004;49.120;-0.200;2023-07-08T13:36:00;14.05;;;6.93;;
35909;SDS011;22004;49.120;-0.200;2023-07-08T13:38:30;11.02;;;6.15;;
35909;SDS011;22004;49.120;-0.200;2023-07-08T13:41:00;10.15;;;5.90;;
35909;SDS011;22004;49.120;-0.200;2023-07-08T13:43:28;10.18;;;5.65;;
35909;SDS011;22004;49.120;-0.200;2023-07-08T13:45:55;14.48;;;6.25;;
35909;SDS011;22004;49.120;-0.200;2023-07-08T13:48:24;9.88;;;5.93;;
35909;SDS011;22004;49.120;-0.200;2023-07-08T13:50:55;10.82;;;5.88;;
35909;SDS011;22004;49.120;-0.200;2023-07-08T13:53:27;13.93;;;5.60;;
35909;SDS011;22004;49.120;-0.200;2023-07-08T13:56:15;15.23;;;5.47;;
35909;SDS011;22004;49.120;-0.200;2023-07-08T13:58:45;10.07;;;5.80;;
35909;SDS011;22004;49.120;-0.200;2023-07-08T14:01:15;9.27;;;5.60;;
35909;SDS011;22004;49.120;-0.200;2023-07-08T14:03:49;17.88;;;6.75;;
35909;SDS011;22004;49.120;-0.200;2023-07-08T14:06:17;8.45;;;5.60;;
35909;SDS011;22004;49.120;-0.200;2023-07-08T14:08:45;11.13;;;5.50;;
35909;SDS011;22004;49.120;-0.200;2023-07-08T14:11:10;13.75;;;5.35;;
35909;SDS011;22004;49.120;-0.200;2023-07-08T14:13:35;12.05;;;5.75;;
35909;SDS011;22004;49.120;-0.200;2023-07-08T14:16:01;8.45;;;5.63;;
35909;SDS011;22004;49.120;-0.200;2023-07-08T14:18:29;10.93;;;5.97;;
35909;SDS011;22004;49.120;-0.200;2023-07-08T14:20:55;11.30;;;6.00;;
35909;SDS011;22004;49.120;-0.200;2023-07-08T14:23:20;9.93;;;5.38;;
35909;SDS011;22004;49.120;-0.200;2023-07-08T14:25:46;9.82;;;5.10;;
35909;SDS011;22004;49.120;-0.200;2023-07-08T14:28:11;9.25;;;5.75;;
35909;SDS011;22004;49.120;-0.200;2023-07-08T14:30:39;12.52;;;5.10;;
35909;SDS011;22004;49.120;-0.200;2023-07-08T14:33:10;13.50;;;5.18;;
35909;SDS011;22004;49.120;-0.200;2023-07-08T14:35:36;12.30;;;5.30;;
35909;SDS011;22004;49.120;-0.200;2023-07-08T14:38:04;11.48;;;5.18;;
35909;SDS011;22004;49.120;-0.200;2023-07-08T14:40:38;11.93;;;5.00;;
35909;SDS011;22004;49.120;-0.200;2023-07-08T14:43:15;12.27;;;5.07;;
35909;SDS011;22004;49.120;-0.200;2023-07-08T14:45:47;10.18;;;4.82;;
35909;SDS011;22004;49.120;-0.200;2023-07-08T14:48:15;12.18;;;4.72;;
35909;SDS011;22004;49.120;-0.200;2023-07-08T14:50:41;11.98;;;5.10;;
35909;SDS011;22004;49.120;-0.200;2023-07-08T14:53:06;13.40;;;6.18;;
35909;SDS011;22004;49.120;-0.200;2023-07-08T14:55:32;14.25;;;5.47;;
35909;SDS011;22004;49.120;-0.200;2023-07-08T14:57:58;9.93;;;5.47;;
35909;SDS011;22004;49.120;-0.200;2023-07-08T15:00:24;9.07;;;5.50;;
35909;SDS011;22004;49.120;-0.200;2023-07-08T15:02:50;11.50;;;6.03;;
35909;SDS011;22004;49.120;-0.200;2023-07-08T15:07:49;11.13;;;6.18;;
35909;SDS011;22004;49.120;-0.200;2023-07-08T15:10:16;14.35;;;6.88;;
35909;SDS011;22004;49.120;-0.200;2023-07-08T15:12:42;11.07;;;5.90;;
35909;SDS011;22004;49.120;-0.200;2023-07-08T15:15:15;14.20;;;6.47;;
35909;SDS011;22004;49.120;-0.200;2023-07-08T15:17:42;12.75;;;6.05;;
35909;SDS011;22004;49.120;-0.200;2023-07-08T15:20:11;11.15;;;6.28;;
35909;SDS011;22004;49.120;-0.200;2023-07-08T15:22:38;12.50;;;6.97;;
35909;SDS011;22004;49.120;-0.200;2023-07-08T15:25:04;14.95;;;6.95;;
35909;SDS011;22004;49.120;-0.200;2023-07-08T15:27:30;16.10;;;6.70;;
35909;SDS011;22004;49.120;-0.200;2023-07-08T15:29:56;8.95;;;6.03;;
35909;SDS011;22004;49.120;-0.200;2023-07-08T15:32:21;11.68;;;6.95;;
35909;SDS011;22004;49.120;-0.200;2023-07-08T15:34:47;12.02;;;6.28;;
35909;SDS011;22004;49.120;-0.200;2023-07-08T15:37:12;11.85;;;7.43;;
35909;SDS011;22004;49.120;-0.200;2023-07-08T15:39:37;13.38;;;6.20;;
35909;SDS011;22004;49.120;-0.200;2023-07-08T15:42:03;11.82;;;6.68;;
35909;SDS011;22004;49.120;-0.200;2023-07-08T15:44:29;12.98;;;5.93;;
35909;SDS011;22004;49.120;-0.200;2023-07-08T15:46:54;12.75;;;5.97;;